首页
METAR-TAF:

METAR-TAF

机场 :

Angelina County Airport

拉夫金, 得克萨斯州, 美国

纬度: 31-14-02N, 经度: 094-45-00W, 海拔: 90米

当前天气观测

该预报发布于1小时和2分钟前的02:53 UTC
风速6节,风向东转东南
温度 15°C
湿度 88%
气压 1015 hPa
能見度: 16.1公里
多云层高于2900英尺

METAR: KLFK 170253Z AUTO 12006KT 10SM BKN029 15/13 A2997 RMK AO2 SLP145 T01500128 50004 $

时间: 21:55 (03:55 UTC)

预报

该预报发布于1小时和18分钟前的02:37 UTC
预报有效从17日的 03点(UTC)到 17日的 24点(UTC)
风速5节,风向东转东南
能見度: 10公里
多云层高于2800英尺
从 17日的 0600点(UTC)
风速5节,风向
能見度: 10公里
多云层高于1500英尺
从 17日的 0900点(UTC)
风速5节,风向
能見度: 10公里
阴天层高于300英尺
从 17日的 1500点(UTC)
风速9节,风向
能見度: 10公里
阴天层高于700英尺
从 17日的 1900点(UTC)
风速11节,风向,有时为18节阵风
能見度: 10公里
阴天层高于2500英尺

TAF: KLFK 170237Z 1703/1724 11005KT P6SM BKN028 FM170600 17005KT P6SM BKN015 FM170900 18005KT P6SM OVC003 FM171500 17009KT P6SM OVC007 FM171900 19011G18KT P6SM OVC025

超过4000个机场的气象观测和天气预报(METAR&TAF报告)。

可查询的气象台以黄色和红色小点在地图上表示。

将鼠标移到小点上方,可查看气象台名称。

然后点击查看天气观测和预报。

如需切换地图:点击带黑十字的绿色按钮放大地图;点击带横线的绿色按钮缩小地图;或者点击绿色箭头查看邻近地区的地图。


METAR-TAF: